Time;durP1;ratioP1;P1;durP2;ratioP2;P2;SDS_P1;SDS_P2;PMS_P1;PMS_P2;Temp;Humidity;BMP_temperature;BMP_pressure;BME280_temperature;BME280_humidity;BME280_pressure;Samples;Min_cycle;Max_cycle;Signal;HPM_P1;HPM_P2
2020/12/01 00:00:59;;;;;;;45.60;22.25;;;0.10;44.10;;;;;;5090834;28;20500;-67
2020/12/01 00:03:26;;;;;;;39.10;20.85;;;0.10;44.70;;;;;;5087676;28;20056;-68
2020/12/01 00:05:53;;;;;;;40.67;20.75;;;0.10;45.80;;;;;;5087453;28;20521;-68
2020/12/01 00:08:20;;;;;;;40.47;21.77;;;0.10;47.40;;;;;;5087435;28;20525;-67
2020/12/01 00:10:47;;;;;;;38.72;20.42;;;0.10;48.90;;;;;;5088640;28;20185;-69
2020/12/01 00:13:14;;;;;;;38.15;21.70;;;0.00;50.30;;;;;;5087479;28;20052;-69
2020/12/01 00:15:41;;;;;;;41.00;21.67;;;-0.10;52.50;;;;;;5089270;28;20432;-68
2020/12/01 00:18:07;;;;;;;40.00;20.08;;;0.00;53.20;;;;;;5086932;28;20071;-68
2020/12/01 00:20:34;;;;;;;42.85;21.27;;;0.00;53.30;;;;;;5087832;28;20048;-68
2020/12/01 00:23:02;;;;;;;42.53;21.42;;;0.00;54.10;;;;;;5085525;28;20070;-67
2020/12/01 00:25:29;;;;;;;39.10;20.77;;;0.00;54.00;;;;;;5089991;28;20472;-68
2020/12/01 00:27:56;;;;;;;43.72;21.52;;;0.00;54.60;;;;;;5086121;28;20044;-68
2020/12/01 00:30:26;;;;;;;42.20;22.48;;;0.00;55.20;;;;;;5090074;28;20135;-68
2020/12/01 00:32:53;;;;;;;45.20;21.70;;;0.00;56.10;;;;;;5088058;28;20055;-68
2020/12/01 00:35:23;;;;;;;45.40;21.30;;;0.00;57.80;;;;;;5087617;28;20527;-69
2020/12/01 00:37:51;;;;;;;41.60;21.40;;;0.10;57.90;;;;;;5086790;28;20055;-68
2020/12/01 00:40:20;;;;;;;37.95;21.55;;;0.10;58.20;;;;;;5085859;28;20044;-69
2020/12/01 00:42:51;;;;;;;46.63;23.42;;;0.10;59.40;;;;;;5086273;28;20047;-68
2020/12/01 00:45:19;;;;;;;42.67;23.20;;;0.10;59.80;;;;;;5088516;28;20664;-69
2020/12/01 00:47:46;;;;;;;45.13;22.80;;;0.10;60.70;;;;;;5086608;28;20044;-67
2020/12/01 00:50:21;;;;;;;43.70;21.13;;;0.20;61.20;;;;;;5088467;28;20139;-68
2020/12/01 00:52:48;;;;;;;43.78;22.13;;;0.20;62.00;;;;;;5087724;28;20416;-69
2020/12/01 00:55:15;;;;;;;48.08;23.83;;;0.20;62.80;;;;;;5088461;28;20147;-68
2020/12/01 00:57:42;;;;;;;47.80;23.25;;;0.30;63.10;;;;;;5086832;28;20043;-68
2020/12/01 01:00:14;;;;;;;53.22;24.33;;;0.30;62.90;;;;;;5090141;28;20044;-68
2020/12/01 01:02:40;;;;;;;46.50;22.75;;;0.40;63.80;;;;;;5087826;28;20044;-69
2020/12/01 01:05:08;;;;;;;48.47;23.52;;;0.40;63.70;;;;;;5088413;28;20109;-68
2020/12/01 01:07:34;;;;;;;52.22;24.55;;;0.40;64.50;;;;;;5083788;28;20044;-68
2020/12/01 01:10:01;;;;;;;48.05;24.90;;;0.50;64.60;;;;;;5089873;28;20036;-67
2020/12/01 01:12:28;;;;;;;47.47;23.17;;;0.50;64.90;;;;;;5086545;28;20044;-68
2020/12/01 01:14:56;;;;;;;58.13;25.55;;;0.50;65.30;;;;;;5087985;28;20497;-68
2020/12/01 01:17:23;;;;;;;55.05;25.63;;;0.60;65.50;;;;;;5086067;28;20055;-68
2020/12/01 01:19:50;;;;;;;56.92;26.58;;;0.60;66.00;;;;;;5089450;28;20497;-68
2020/12/01 01:22:17;;;;;;;50.85;23.77;;;0.60;66.20;;;;;;5086835;28;20455;-67
2020/12/01 01:24:43;;;;;;;61.90;31.10;;;0.70;66.00;;;;;;5087702;28;20047;-68
2020/12/01 01:27:10;;;;;;;51.75;23.73;;;0.70;65.90;;;;;;5086312;28;20062;-68
2020/12/01 01:29:37;;;;;;;49.08;22.73;;;0.70;66.30;;;;;;5089068;28;20401;-69
2020/12/01 01:32:04;;;;;;;46.70;22.08;;;0.80;66.60;;;;;;5086000;28;20056;-68
2020/12/01 01:34:31;;;;;;;49.53;23.02;;;0.80;66.50;;;;;;5086440;28;20075;-68
2020/12/01 01:36:58;;;;;;;50.88;22.75;;;0.80;66.50;;;;;;5086141;28;20067;-69
2020/12/01 01:39:25;;;;;;;46.10;21.45;;;0.80;65.70;;;;;;5088789;28;20051;-68
2020/12/01 01:41:52;;;;;;;45.40;22.50;;;0.80;66.30;;;;;;5086540;28;20048;-68
2020/12/01 01:44:21;;;;;;;46.03;22.83;;;0.80;66.50;;;;;;5087562;28;20505;-68
2020/12/01 01:46:53;;;;;;;49.67;22.70;;;0.80;66.60;;;;;;5086636;28;20402;-68
2020/12/01 01:49:24;;;;;;;49.42;22.27;;;0.80;66.60;;;;;;5087804;28;20048;-67
2020/12/01 01:51:54;;;;;;;47.28;22.45;;;0.70;66.60;;;;;;5085747;28;20493;-68
2020/12/01 01:54:22;;;;;;;50.97;24.67;;;0.70;67.10;;;;;;5087373;28;20060;-69
2020/12/01 01:56:53;;;;;;;48.72;23.33;;;0.80;67.80;;;;;;5085773;28;20058;-68
2020/12/01 01:59:21;;;;;;;54.65;25.25;;;0.80;67.80;;;;;;5088444;28;20059;-68
2020/12/01 02:01:49;;;;;;;52.30;25.55;;;0.80;68.30;;;;;;5086656;28;20048;-68
2020/12/01 02:04:17;;;;;;;53.88;25.45;;;0.70;69.10;;;;;;5086777;28;20052;-69
2020/12/01 02:06:48;;;;;;;56.75;25.23;;;0.70;69.30;;;;;;5085145;28;20044;-68
2020/12/01 02:09:18;;;;;;;54.85;25.30;;;0.70;69.60;;;;;;5088195;28;20408;-69
2020/12/01 02:11:46;;;;;;;53.70;25.95;;;0.70;69.90;;;;;;5085877;28;20435;-67
2020/12/01 02:14:16;;;;;;;56.88;24.95;;;0.70;70.10;;;;;;5085961;28;20048;-68
2020/12/01 02:16:47;;;;;;;52.45;24.30;;;0.70;70.50;;;;;;5086051;28;20083;-68
2020/12/01 02:19:18;;;;;;;49.88;25.38;;;0.70;70.50;;;;;;5087915;28;20444;-68
2020/12/01 02:21:46;;;;;;;52.72;24.17;;;0.70;70.60;;;;;;5085540;28;20086;-68
2020/12/01 02:24:16;;;;;;;50.17;24.17;;;0.80;70.60;;;;;;5086906;28;20524;-67
2020/12/01 02:26:46;;;;;;;50.28;23.30;;;0.80;70.60;;;;;;5084292;28;20046;-67
2020/12/01 02:29:16;;;;;;;50.90;22.85;;;0.80;70.60;;;;;;5087630;28;20040;-67
2020/12/01 02:31:43;;;;;;;50.20;23.13;;;0.80;70.60;;;;;;5085881;28;19930;-68
2020/12/01 02:34:15;;;;;;;53.30;24.17;;;0.80;70.90;;;;;;5086500;28;20048;-68
2020/12/01 02:36:43;;;;;;;50.75;22.45;;;0.80;71.10;;;;;;5085037;28;20044;-68
2020/12/01 02:39:12;;;;;;;50.60;22.75;;;0.90;71.40;;;;;;5087745;28;20084;-69
2020/12/01 02:41:39;;;;;;;49.65;21.60;;;0.90;71.60;;;;;;5087374;28;20443;-69
2020/12/01 02:44:07;;;;;;;48.88;21.85;;;0.90;71.70;;;;;;5089818;28;20131;-69
2020/12/01 02:46:36;;;;;;;47.63;22.95;;;0.90;71.80;;;;;;5089815;28;20527;-68
2020/12/01 02:49:04;;;;;;;50.38;23.27;;;0.90;71.70;;;;;;5091814;28;20409;-68
2020/12/01 02:51:31;;;;;;;49.80;22.48;;;0.90;71.90;;;;;;5092482;28;20070;-69
2020/12/01 02:53:58;;;;;;;51.75;22.85;;;0.90;71.90;;;;;;5088957;28;20040;-68
2020/12/01 02:56:25;;;;;;;49.83;22.35;;;1.00;72.20;;;;;;5089730;28;20051;-68
2020/12/01 02:58:52;;;;;;;49.65;22.95;;;0.90;72.00;;;;;;5091419;28;20048;-68
2020/12/01 03:01:20;;;;;;;49.40;23.23;;;1.00;72.20;;;;;;5092481;28;20040;-68
2020/12/01 03:03:48;;;;;;;46.60;22.88;;;0.90;71.90;;;;;;5087822;28;20052;-67
2020/12/01 03:06:16;;;;;;;50.13;22.48;;;0.90;72.20;;;;;;5088853;28;20052;-67
2020/12/01 03:08:44;;;;;;;45.00;22.27;;;0.90;71.90;;;;;;5091008;28;20048;-68
2020/12/01 03:11:11;;;;;;;50.53;23.40;;;0.90;72.10;;;;;;5091701;28;20136;-68
2020/12/01 03:13:38;;;;;;;47.67;22.70;;;0.90;72.10;;;;;;5089266;28;20044;-69
2020/12/01 03:16:08;;;;;;;54.42;23.90;;;0.90;72.10;;;;;;5088195;28;20056;-69
2020/12/01 03:18:37;;;;;;;48.42;22.98;;;0.90;72.20;;;;;;5089913;28;20062;-68
2020/12/01 03:21:04;;;;;;;50.60;22.98;;;0.90;72.10;;;;;;5090666;28;20040;-68
2020/12/01 03:23:31;;;;;;;46.13;22.45;;;1.00;72.00;;;;;;5089531;28;20056;-68
2020/12/01 03:25:58;;;;;;;46.50;22.15;;;1.00;71.80;;;;;;5089348;28;20594;-68
2020/12/01 03:28:25;;;;;;;43.85;21.60;;;1.00;71.40;;;;;;5088583;28;20048;-68
2020/12/01 03:30:53;;;;;;;43.97;20.98;;;1.10;71.40;;;;;;5091982;28;20416;-68
2020/12/01 03:33:20;;;;;;;47.50;21.00;;;1.10;70.80;;;;;;5089412;28;20044;-68
2020/12/01 03:35:49;;;;;;;43.88;20.40;;;1.10;70.90;;;;;;5089511;28;20459;-67
2020/12/01 03:38:16;;;;;;;46.53;21.67;;;1.10;70.90;;;;;;5088352;28;20048;-69
2020/12/01 03:40:43;;;;;;;43.10;20.35;;;1.10;70.90;;;;;;5091429;28;20052;-68
2020/12/01 03:43:10;;;;;;;44.42;20.80;;;1.10;70.90;;;;;;5089255;28;20056;-68
2020/12/01 03:45:38;;;;;;;42.85;20.98;;;1.10;71.10;;;;;;5089176;28;20048;-67
2020/12/01 03:48:05;;;;;;;46.90;20.80;;;1.10;71.30;;;;;;5087303;28;20418;-65
2020/12/01 03:50:32;;;;;;;44.95;21.33;;;1.10;71.20;;;;;;5091365;28;20052;-69
2020/12/01 03:53:00;;;;;;;45.67;19.98;;;1.20;71.80;;;;;;5088879;28;20059;-69
2020/12/01 03:55:27;;;;;;;44.60;21.33;;;1.20;71.70;;;;;;5088374;28;20073;-67
2020/12/01 03:57:55;;;;;;;44.63;19.92;;;1.20;71.70;;;;;;5087487;28;20058;-67
2020/12/01 04:00:24;;;;;;;41.92;19.10;;;1.30;71.80;;;;;;5091111;28;20044;-67
2020/12/01 04:02:51;;;;;;;38.30;18.25;;;1.20;71.50;;;;;;5088696;28;20052;-67
2020/12/01 04:05:20;;;;;;;41.97;19.00;;;1.20;71.50;;;;;;5088847;28;20051;-65
2020/12/01 04:07:48;;;;;;;42.83;19.17;;;1.20;72.10;;;;;;5087719;28;20047;-68
2020/12/01 04:10:17;;;;;;;38.72;18.15;;;1.20;72.10;;;;;;5090713;28;20048;-68
2020/12/01 04:12:44;;;;;;;41.47;18.83;;;1.30;72.30;;;;;;5087642;28;20054;-67
2020/12/01 04:15:12;;;;;;;46.15;21.90;;;1.30;72.30;;;;;;5089097;28;20059;-68
2020/12/01 04:17:39;;;;;;;40.97;20.02;;;1.20;72.00;;;;;;5087011;28;20044;-69
2020/12/01 04:20:07;;;;;;;47.20;21.50;;;1.20;72.00;;;;;;5090956;28;20042;-68
2020/12/01 04:22:34;;;;;;;44.42;20.38;;;1.10;72.20;;;;;;5088054;28;20043;-69
2020/12/01 04:25:02;;;;;;;48.47;21.33;;;1.10;72.60;;;;;;5089355;28;20048;-68
2020/12/01 04:27:30;;;;;;;44.50;21.58;;;1.10;72.60;;;;;;5085876;28;20056;-69
2020/12/01 04:29:57;;;;;;;40.92;19.42;;;1.10;72.90;;;;;;5090371;28;20048;-69
2020/12/01 04:32:23;;;;;;;42.03;21.45;;;1.10;73.00;;;;;;5086518;28;20044;-69
2020/12/01 04:34:50;;;;;;;42.70;19.95;;;1.20;73.20;;;;;;5089055;28;20056;-69
2020/12/01 04:37:17;;;;;;;43.88;21.58;;;1.10;73.00;;;;;;5086854;28;20060;-69
2020/12/01 04:39:44;;;;;;;42.33;21.55;;;1.10;73.10;;;;;;5091847;28;20047;-69
2020/12/01 04:42:15;;;;;;;46.50;22.08;;;1.10;73.20;;;;;;5087236;28;20066;-70
2020/12/01 04:44:54;;;;;;;48.47;22.08;;;1.10;73.30;;;;;;5087874;28;20044;-69
2020/12/01 04:47:25;;;;;;;54.03;24.73;;;1.10;73.20;;;;;;5082753;28;20505;-67
2020/12/01 04:49:56;;;;;;;52.03;24.42;;;1.10;73.10;;;;;;5089881;28;20048;-69
2020/12/01 04:52:47;;;;;;;55.83;23.33;;;1.10;73.30;;;;;;5085997;28;20044;-68
2020/12/01 04:55:33;;;;;;;47.20;22.33;;;1.10;73.40;;;;;;5087644;28;20052;-69
2020/12/01 04:58:28;;;;;;;42.45;21.08;;;1.00;73.20;;;;;;5086721;28;20062;-67
2020/12/01 05:01:06;;;;;;;46.33;21.45;;;1.00;73.30;;;;;;5089361;28;20127;-69
2020/12/01 05:03:53;;;;;;;52.03;23.48;;;1.10;73.50;;;;;;5087691;28;20052;-68
2020/12/01 05:06:54;;;;;;;52.65;22.20;;;1.00;73.50;;;;;;5084803;28;20386;-65
2020/12/01 05:09:30;;;;;;;48.25;20.35;;;1.00;73.60;;;;;;5089409;28;20048;-69
2020/12/01 05:11:59;;;;;;;42.55;20.42;;;1.00;73.70;;;;;;5086482;28;20056;-70
2020/12/01 05:14:33;;;;;;;47.83;21.25;;;1.00;73.60;;;;;;5087838;28;20131;-68
2020/12/01 05:17:45;;;;;;;52.55;22.50;;;1.00;73.70;;;;;;5086262;28;20051;-68
2020/12/01 05:20:13;;;;;;;48.85;20.42;;;1.00;73.70;;;;;;5089581;28;20068;-65
2020/12/01 05:22:51;;;;;;;42.30;20.40;;;1.00;73.90;;;;;;5087559;28;20051;-69
2020/12/01 05:25:22;;;;;;;44.67;21.60;;;1.10;74.00;;;;;;5087564;28;20044;-69
2020/12/01 05:27:49;;;;;;;47.67;22.17;;;1.10;74.00;;;;;;5085752;28;20044;-70
2020/12/01 05:30:21;;;;;;;43.65;21.23;;;1.10;74.00;;;;;;5087739;28;20054;-70
2020/12/01 05:32:55;;;;;;;51.45;21.38;;;1.10;74.10;;;;;;5085833;28;20501;-69
2020/12/01 05:35:25;;;;;;;44.75;20.98;;;1.10;74.10;;;;;;5087621;28;20054;-68
2020/12/01 05:37:59;;;;;;;54.38;23.70;;;1.10;74.20;;;;;;5085032;28;20059;-69
2020/12/01 05:40:29;;;;;;;47.55;23.02;;;1.10;74.20;;;;;;5089000;28;20044;-70
2020/12/01 05:42:56;;;;;;;56.92;24.90;;;1.10;74.20;;;;;;5086694;28;20044;-70
2020/12/01 05:45:32;;;;;;;58.95;25.30;;;1.10;74.20;;;;;;5086059;28;20074;-69
2020/12/01 05:48:24;;;;;;;53.95;25.38;;;1.10;74.30;;;;;;5085383;28;20500;-69
2020/12/01 05:51:02;;;;;;;50.67;23.83;;;1.10;74.40;;;;;;5088903;28;20047;-67
2020/12/01 05:53:28;;;;;;;49.95;23.92;;;1.10;74.40;;;;;;5086131;28;20048;-68
2020/12/01 05:56:01;;;;;;;52.38;23.73;;;1.10;74.50;;;;;;5086069;28;20051;-68
2020/12/01 05:58:38;;;;;;;45.35;21.52;;;1.20;74.60;;;;;;5085813;28;20086;-68
2020/12/01 06:01:05;;;;;;;46.08;22.17;;;1.10;74.50;;;;;;5088273;28;20044;-69
2020/12/01 06:03:44;;;;;;;41.53;19.88;;;1.20;74.60;;;;;;5086231;28;20048;-68
2020/12/01 06:06:13;;;;;;;45.35;20.55;;;1.20;74.70;;;;;;5084665;28;20508;-68
2020/12/01 06:08:45;;;;;;;42.83;19.40;;;1.20;74.70;;;;;;5087089;28;20044;-69
2020/12/01 06:11:30;;;;;;;41.97;20.02;;;1.20;74.80;;;;;;5088993;28;20055;-69
2020/12/01 06:14:00;;;;;;;42.20;19.55;;;1.30;74.90;;;;;;5085847;28;20455;-68
2020/12/01 06:16:50;;;;;;;45.60;19.25;;;1.30;74.90;;;;;;5084214;28;20095;-69
2020/12/01 06:19:26;;;;;;;42.13;19.23;;;1.30;74.90;;;;;;5084609;28;20429;-68
2020/12/01 06:22:16;;;;;;;45.15;19.30;;;1.30;74.90;;;;;;5085156;28;20051;-68
2020/12/01 06:25:23;;;;;;;46.70;18.63;;;1.40;75.00;;;;;;5086064;28;20048;-68
2020/12/01 06:28:21;;;;;;;41.50;18.65;;;1.40;75.00;;;;;;5057388;28;20050;-68
2020/12/01 06:31:22;;;;;;;42.63;19.63;;;1.50;75.10;;;;;;5086867;28;20044;-68
2020/12/01 06:34:30;;;;;;;46.10;18.83;;;1.40;75.10;;;;;;5081994;28;20048;-68
2020/12/01 06:37:27;;;;;;;41.67;17.67;;;1.50;75.20;;;;;;5083893;28;20044;-68
2020/12/01 06:40:31;;;;;;;42.65;19.35;;;1.50;75.10;;;;;;5088284;28;20052;-69
2020/12/01 06:46:49;;;;;;;47.83;20.13;;;1.50;75.20;;;;;;5029844;28;20067;-68
2020/12/01 06:49:19;;;;;;;45.85;18.75;;;1.50;75.20;;;;;;5086193;28;20056;-68
2020/12/01 06:51:48;;;;;;;41.08;18.90;;;1.50;75.80;;;;;;5083927;28;20393;-67
2020/12/01 06:54:17;;;;;;;46.47;19.55;;;1.50;75.20;;;;;;5086397;28;20055;-68
2020/12/01 06:56:56;;;;;;;40.80;19.50;;;1.50;75.20;;;;;;5083922;28;20056;-69
2020/12/01 06:59:23;;;;;;;47.05;18.80;;;1.60;75.20;;;;;;5087204;28;20417;-67
2020/12/01 07:01:50;;;;;;;45.25;19.17;;;1.60;75.30;;;;;;5084595;28;20063;-69
2020/12/01 07:04:27;;;;;;;46.78;18.80;;;1.60;75.20;;;;;;5087019;28;20063;-67
2020/12/01 07:06:57;;;;;;;41.75;18.58;;;1.60;75.20;;;;;;5084916;28;20471;-67
2020/12/01 07:09:28;;;;;;;44.15;19.05;;;1.60;75.20;;;;;;5088335;28;20052;-69
2020/12/01 07:12:12;;;;;;;51.95;19.73;;;1.60;75.20;;;;;;5086692;28;20677;-67
2020/12/01 07:14:41;;;;;;;43.92;18.83;;;1.60;75.30;;;;;;5068552;28;20063;-70
2020/12/01 07:17:29;;;;;;;36.85;18.23;;;1.60;75.20;;;;;;5086156;28;20040;-67
2020/12/01 07:19:58;;;;;;;36.17;18.08;;;1.60;75.20;;;;;;5088665;28;20072;-68
2020/12/01 07:22:35;;;;;;;41.78;19.88;;;1.60;75.20;;;;;;5087119;28;20048;-71
2020/12/01 07:25:11;;;;;;;41.38;19.77;;;1.60;75.30;;;;;;5087511;28;20056;-67
2020/12/01 07:27:51;;;;;;;51.42;20.70;;;1.60;75.20;;;;;;5086558;28;20505;-69
2020/12/01 07:30:23;;;;;;;44.78;19.60;;;1.50;75.20;;;;;;5090848;28;20044;-68
2020/12/01 07:33:02;;;;;;;48.47;21.33;;;1.60;75.30;;;;;;5091229;28;20401;-68
2020/12/01 07:35:35;;;;;;;46.47;21.75;;;1.60;75.20;;;;;;5092139;28;20048;-67
2020/12/01 07:38:09;;;;;;;52.92;21.73;;;1.60;75.30;;;;;;5088883;28;20682;-67
2020/12/01 07:40:46;;;;;;;53.05;22.50;;;1.60;75.30;;;;;;5091348;28;20051;-69
2020/12/01 07:43:15;;;;;;;41.97;19.75;;;1.60;75.30;;;;;;5089281;28;20497;-69
2020/12/01 07:45:42;;;;;;;46.33;20.30;;;1.60;75.30;;;;;;5089398;28;20051;-68
2020/12/01 07:48:13;;;;;;;49.50;20.67;;;1.60;75.40;;;;;;5086311;28;20412;-70
2020/12/01 07:50:41;;;;;;;47.13;20.63;;;1.60;75.40;;;;;;5091119;28;20048;-68
2020/12/01 07:53:10;;;;;;;48.53;21.58;;;1.70;75.60;;;;;;5089327;28;20044;-69
2020/12/01 07:55:41;;;;;;;51.30;22.52;;;1.70;75.50;;;;;;5090125;28;20051;-70
2020/12/01 07:58:17;;;;;;;48.53;20.92;;;1.70;75.60;;;;;;5085959;28;20040;-67
2020/12/01 08:00:51;;;;;;;47.42;22.95;;;1.70;75.60;;;;;;5090281;28;20048;-69
2020/12/01 08:03:22;;;;;;;50.65;21.58;;;1.70;75.50;;;;;;5088413;28;20520;-68
2020/12/01 08:05:49;;;;;;;44.85;21.60;;;1.70;75.50;;;;;;5090649;28;20554;-69
2020/12/01 08:08:17;;;;;;;45.65;22.02;;;1.70;75.50;;;;;;5085833;28;20059;-69
2020/12/01 08:10:47;;;;;;;50.28;21.42;;;1.60;75.30;;;;;;5090531;28;20521;-68
2020/12/01 08:13:15;;;;;;;43.80;20.77;;;1.60;75.40;;;;;;5088722;28;20048;-68
2020/12/01 08:15:44;;;;;;;55.88;22.75;;;1.60;75.40;;;;;;5090343;28;21423;-69
2020/12/01 08:18:15;;;;;;;51.42;22.83;;;1.60;75.40;;;;;;5083148;28;20047;-69
2020/12/01 08:20:42;;;;;;;54.92;22.13;;;1.60;75.50;;;;;;5090783;28;20075;-69
2020/12/01 08:23:13;;;;;;;101.15;41.85;;;1.60;75.50;;;;;;5089000;28;20048;-69
2020/12/01 08:25:47;;;;;;;49.78;26.70;;;1.70;75.80;;;;;;5088875;28;20040;-69
2020/12/01 08:28:22;;;;;;;56.42;26.35;;;1.80;75.90;;;;;;5085564;28;20047;-69
2020/12/01 08:30:59;;;;;;;51.42;24.55;;;1.80;75.90;;;;;;5089995;28;20051;-68
2020/12/01 08:33:38;;;;;;;54.45;22.75;;;1.80;75.90;;;;;;5087838;28;20075;-68
2020/12/01 08:36:18;;;;;;;35.25;16.90;;;1.80;75.90;;;;;;5089357;28;20044;-67
2020/12/01 08:39:05;;;;;;;28.58;14.60;;;1.80;75.80;;;;;;5085816;28;20059;-69
2020/12/01 08:41:44;;;;;;;32.47;15.20;;;1.90;75.80;;;;;;5088980;28;20059;-67
2020/12/01 08:44:20;;;;;;;25.40;13.75;;;1.90;75.60;;;;;;5090250;28;20055;-69
2020/12/01 08:46:49;;;;;;;27.13;13.43;;;1.90;75.50;;;;;;5088075;28;20048;-68
2020/12/01 08:52:26;;;;;;;27.33;13.65;;;1.90;75.50;;;;;;5087053;28;20139;-69
2020/12/01 08:54:57;;;;;;;26.38;13.90;;;2.00;75.50;;;;;;5086235;28;20062;-68
2020/12/01 08:57:32;;;;;;;31.45;12.20;;;2.00;75.50;;;;;;5088617;28;20488;-69
2020/12/01 09:00:19;;;;;;;22.48;12.45;;;2.00;75.50;;;;;;5089361;28;20382;-70
2020/12/01 09:02:49;;;;;;;26.88;12.88;;;2.00;74.80;;;;;;5087330;28;20083;-69
2020/12/01 09:05:23;;;;;;;28.45;14.88;;;1.90;75.10;;;;;;5088756;28;20052;-69
2020/12/01 09:08:01;;;;;;;19.77;12.02;;;2.00;74.60;;;;;;5084552;28;20048;-69
2020/12/01 09:10:30;;;;;;;26.55;12.30;;;2.00;74.60;;;;;;5088860;28;20063;-69
2020/12/01 09:13:07;;;;;;;28.75;12.52;;;2.00;74.70;;;;;;5087669;28;20055;-69
2020/12/01 09:15:49;;;;;;;24.50;11.68;;;2.00;74.30;;;;;;5087110;28;20493;-69
2020/12/01 09:18:48;;;;;;;20.63;11.43;;;2.00;73.90;;;;;;5083900;28;20058;-68
2020/12/01 09:24:17;;;;;;;17.35;9.68;;;2.10;73.90;;;;;;5087817;28;20051;-68
2020/12/01 09:26:44;;;;;;;23.37;11.17;;;2.00;73.20;;;;;;5086181;28;20048;-67
2020/12/01 09:29:12;;;;;;;19.08;10.77;;;2.00;73.20;;;;;;5084997;28;20779;-67
2020/12/01 09:31:40;;;;;;;20.95;10.23;;;2.10;73.80;;;;;;5087993;28;20044;-68
2020/12/01 09:34:07;;;;;;;17.48;9.60;;;2.10;73.40;;;;;;5088648;28;20835;-69
2020/12/01 09:36:35;;;;;;;21.65;9.75;;;2.20;73.30;;;;;;5087486;28;20496;-69
2020/12/01 09:39:01;;;;;;;15.43;9.80;;;2.10;72.30;;;;;;5084306;28;20469;-69
2020/12/01 09:41:29;;;;;;;16.58;9.18;;;2.10;71.80;;;;;;5087023;28;20119;-70
2020/12/01 09:44:01;;;;;;;16.75;9.52;;;2.00;68.70;;;;;;5086512;28;20056;-70
2020/12/01 09:46:32;;;;;;;17.45;10.07;;;1.90;70.00;;;;;;5086449;28;20505;-66
2020/12/01 09:49:02;;;;;;;16.83;10.10;;;1.90;71.10;;;;;;5085184;28;20047;-69
2020/12/01 09:51:29;;;;;;;20.70;10.63;;;1.90;71.50;;;;;;5087408;28;20050;-70
2020/12/01 09:54:16;;;;;;;19.63;10.32;;;2.00;72.20;;;;;;5086022;28;20412;-70
2020/12/01 09:56:47;;;;;;;14.52;8.65;;;2.00;71.60;;;;;;5086737;28;20172;-71
2020/12/01 09:59:30;;;;;;;16.65;9.73;;;2.00;71.60;;;;;;5084426;28;20040;-72
2020/12/01 10:05:02;;;;;;;14.17;8.80;;;2.00;71.60;;;;;;5048178;28;20058;-68
2020/12/01 10:10:24;;;;;;;17.60;8.75;;;2.10;72.40;;;;;;5078733;28;20054;-71
2020/12/01 10:12:56;;;;;;;14.27;8.63;;;2.10;72.70;;;;;;5085474;28;20044;-72
2020/12/01 10:15:41;;;;;;;16.60;9.30;;;2.20;72.20;;;;;;5087939;28;20052;-70
2020/12/01 10:18:41;;;;;;;23.35;10.52;;;2.20;71.80;;;;;;5083478;28;20634;-67
2020/12/01 10:27:20;;;;;;;14.77;8.40;;;2.20;71.30;;;;;;5085269;28;20048;-70
2020/12/01 10:35:27;;;;;;;16.83;9.07;;;2.10;71.80;;;;;;5086626;28;20052;-71
2020/12/01 10:37:57;;;;;;;20.33;8.70;;;2.10;71.80;;;;;;5084161;28;20531;-78
2020/12/01 10:40:26;;;;;;;14.00;8.68;;;2.10;71.70;;;;;;5087881;28;20062;-68
2020/12/01 10:42:54;;;;;;;15.18;8.68;;;2.10;72.20;;;;;;5086910;28;20040;-70
2020/12/01 10:45:24;;;;;;;18.05;8.43;;;2.10;71.80;;;;;;5087260;28;20520;-69
2020/12/01 10:47:51;;;;;;;17.20;8.70;;;2.10;72.60;;;;;;5084665;28;20059;-70
2020/12/01 10:50:21;;;;;;;15.80;8.77;;;2.00;72.50;;;;;;5086702;28;20127;-69
2020/12/01 10:52:48;;;;;;;17.92;9.43;;;2.10;73.50;;;;;;5085309;28;20044;-69
2020/12/01 10:55:21;;;;;;;18.83;11.27;;;2.20;74.00;;;;;;5087638;28;20417;-70
2020/12/01 10:57:48;;;;;;;22.35;11.57;;;2.20;73.80;;;;;;5082741;28;20048;-70
2020/12/01 11:00:16;;;;;;;25.42;13.63;;;2.20;73.60;;;;;;5085484;28;20043;-72
2020/12/01 11:02:43;;;;;;;23.83;11.85;;;2.10;72.90;;;;;;5085826;28;20055;-69
2020/12/01 11:05:14;;;;;;;28.70;17.58;;;2.20;73.20;;;;;;5089256;28;20052;-70
2020/12/01 11:07:42;;;;;;;21.50;12.15;;;2.30;73.10;;;;;;5087789;28;20532;-69
2020/12/01 11:10:09;;;;;;;25.00;11.40;;;2.20;71.80;;;;;;5090579;28;20058;-69
2020/12/01 11:12:35;;;;;;;23.88;11.93;;;2.20;72.30;;;;;;5090490;28;20485;-69
2020/12/01 11:15:03;;;;;;;21.00;10.63;;;2.30;72.70;;;;;;5091847;28;20135;-68
2020/12/01 11:17:31;;;;;;;19.95;11.18;;;2.20;72.00;;;;;;5089946;28;20051;-74
2020/12/01 11:19:58;;;;;;;22.02;11.52;;;2.30;72.30;;;;;;5088843;28;20048;-70
2020/12/01 11:22:25;;;;;;;23.10;12.13;;;2.30;72.00;;;;;;5089497;28;20421;-70
2020/12/01 11:24:52;;;;;;;24.02;11.95;;;2.40;72.40;;;;;;5092132;28;20043;-69
2020/12/01 11:27:19;;;;;;;21.20;11.75;;;2.40;72.50;;;;;;5089360;28;20465;-68
2020/12/01 11:29:46;;;;;;;24.65;13.85;;;2.40;72.60;;;;;;5087358;28;20130;-70
2020/12/01 11:32:13;;;;;;;23.77;12.90;;;2.30;72.30;;;;;;5089915;28;20052;-70
2020/12/01 11:34:40;;;;;;;23.65;12.65;;;2.30;71.90;;;;;;5089909;28;20051;-71
2020/12/01 11:37:07;;;;;;;22.52;12.10;;;2.30;72.40;;;;;;5089421;28;20051;-69
2020/12/01 11:39:34;;;;;;;22.60;12.25;;;2.40;73.40;;;;;;5087905;28;20066;-69
2020/12/01 11:42:01;;;;;;;23.48;12.18;;;2.40;73.40;;;;;;5089613;28;20058;-70
2020/12/01 11:44:28;;;;;;;22.10;11.98;;;2.50;72.70;;;;;;5090437;28;20048;-71
2020/12/01 11:46:56;;;;;;;23.25;12.30;;;2.50;72.10;;;;;;5089497;28;20054;-69
2020/12/01 11:49:23;;;;;;;23.67;11.90;;;2.50;72.10;;;;;;5088239;28;20060;-70
2020/12/01 11:51:51;;;;;;;19.42;11.27;;;2.50;72.40;;;;;;5090435;28;20052;-70
2020/12/01 11:54:20;;;;;;;23.17;12.52;;;2.60;73.00;;;;;;5091967;28;20128;-72
2020/12/01 11:56:47;;;;;;;21.48;11.80;;;2.60;72.90;;;;;;5089052;28;20048;-71
2020/12/01 11:59:14;;;;;;;21.52;11.52;;;2.60;72.50;;;;;;5086983;28;20054;-70
2020/12/01 12:01:42;;;;;;;49.72;24.77;;;2.50;72.10;;;;;;5089760;28;20051;-68
2020/12/01 12:04:09;;;;;;;20.58;12.07;;;2.50;71.90;;;;;;5091082;28;20055;-68
2020/12/01 12:06:36;;;;;;;18.88;11.85;;;2.50;71.60;;;;;;5088948;28;20548;-69
2020/12/01 12:09:06;;;;;;;22.67;12.88;;;2.50;72.10;;;;;;5087512;28;20094;-70
2020/12/01 12:11:33;;;;;;;22.55;13.02;;;2.50;72.10;;;;;;5089072;28;20047;-70
2020/12/01 12:14:00;;;;;;;25.40;12.32;;;2.50;72.10;;;;;;5088805;28;20507;-70
2020/12/01 12:16:27;;;;;;;23.83;12.55;;;2.50;72.10;;;;;;5088037;28;20044;-69
2020/12/01 12:18:54;;;;;;;23.15;12.52;;;2.50;72.10;;;;;;5084793;28;20489;-69
2020/12/01 12:21:21;;;;;;;23.85;12.70;;;2.40;72.00;;;;;;5089197;28;20456;-70
2020/12/01 12:23:49;;;;;;;20.98;12.25;;;2.40;72.20;;;;;;5088382;28;20067;-71
2020/12/01 12:26:18;;;;;;;23.08;12.90;;;2.40;72.40;;;;;;5088101;28;20413;-69
2020/12/01 12:28:45;;;;;;;22.23;12.35;;;2.40;72.50;;;;;;5086882;28;20433;-71
2020/12/01 12:31:14;;;;;;;25.58;13.27;;;2.40;73.20;;;;;;5090369;28;20067;-71
2020/12/01 12:33:41;;;;;;;24.85;14.15;;;2.50;73.80;;;;;;5088432;28;20043;-71
2020/12/01 12:36:09;;;;;;;23.25;12.50;;;2.60;74.10;;;;;;5088796;28;20516;-71
2020/12/01 12:38:36;;;;;;;22.90;12.95;;;2.60;74.50;;;;;;5086046;28;20063;-71
2020/12/01 12:41:04;;;;;;;27.20;12.48;;;2.50;72.10;;;;;;5087795;28;20037;-70
2020/12/01 12:43:32;;;;;;;24.58;13.88;;;2.60;72.50;;;;;;5088045;28;20055;-70
2020/12/01 12:45:59;;;;;;;28.95;13.05;;;2.70;73.00;;;;;;5089784;28;20080;-68
2020/12/01 12:48:28;;;;;;;22.98;12.95;;;2.70;72.30;;;;;;5086390;28;20052;-70
2020/12/01 12:50:55;;;;;;;26.60;13.52;;;2.80;72.30;;;;;;5090585;28;20073;-69
2020/12/01 12:53:23;;;;;;;53.05;24.58;;;2.80;71.00;;;;;;5085183;28;20048;-68
2020/12/01 12:55:50;;;;;;;27.10;14.02;;;2.90;71.70;;;;;;5088526;28;20056;-70
2020/12/01 12:58:18;;;;;;;23.33;13.70;;;2.90;70.40;;;;;;5085640;28;20048;-70
2020/12/01 13:00:45;;;;;;;25.08;12.80;;;2.90;70.30;;;;;;5089364;28;20051;-68
2020/12/01 13:03:12;;;;;;;22.15;12.57;;;2.90;69.50;;;;;;5086754;28;20043;-73
2020/12/01 13:05:39;;;;;;;23.15;12.95;;;2.80;69.40;;;;;;5088688;28;20131;-71
2020/12/01 13:08:07;;;;;;;23.23;13.18;;;2.80;69.80;;;;;;5085886;28;20047;-68
2020/12/01 13:10:35;;;;;;;24.38;14.07;;;2.90;71.50;;;;;;5087503;28;20052;-71
2020/12/01 13:13:02;;;;;;;26.55;14.05;;;2.90;72.40;;;;;;5088040;28;20051;-70
2020/12/01 13:15:29;;;;;;;23.60;13.75;;;2.80;70.70;;;;;;5089719;28;20496;-68
2020/12/01 13:18:00;;;;;;;25.60;13.50;;;2.80;72.40;;;;;;5086121;28;20423;-70
2020/12/01 13:20:29;;;;;;;23.02;13.27;;;2.80;72.30;;;;;;5087729;28;20558;-71
2020/12/01 13:22:56;;;;;;;22.83;12.70;;;2.70;71.80;;;;;;5087080;28;20044;-71
2020/12/01 13:25:24;;;;;;;24.92;12.40;;;2.70;72.00;;;;;;5089258;28;20050;-71